Aérodrome :
LOGIN :

S'inscrire | Disclaimer

   EN    FR    IT 

 










Légende :    VFR   VFR Marginal   IFR   IFR Intensif   IFR Très Intensif
Visi : 
Plafond : 
>= 8 km
>= 3000ft
5 à 8 km
1000 à 3000 ft
1500m à 5 km
500 à 1000 ft
800 à 1500m
200 à 500 ft
< 800m
< 200 ft
Symboles :   Orages  Brouillard  Fortes neiges  Fortes précipitations  Vent > 20 kt
SIGMETs :   Divers  Orages  Givrage  Turbulence  Onde Orograph.  Cendres Volcan.







- Altitude de l'aérodrome : 6 ft
- Code IATA : PSA


LIRP - Galileo Galilei Pisa

DERNIER METAR :
  • 270745Z 09003KT CAVOK 18/16 Q1012 NOSIG

METARs EXPIRÉS :
  • 270715Z 10004KT CAVOK 16/15 Q1012 NOSIG
  • 270645Z 12004KT CAVOK 15/15 Q1012 NOSIG
  • 270615Z 14004KT CAVOK 13/13 Q1012 NOSIG
  • 270545Z 14005KT 2500 BR FEW003 11/11 Q1012 BECMG 5000
  • 270515Z 15004KT 0300 R04R/0300N FG SCT001 11/11 Q1012 NOSIG

TAF TAF LIRP
Valide du 27 à 06h jusqu'au 28 à 06h UTC


270500Z 2706/2806 11005KT CAVOK
TEMPO 2706/2708 3000 MIFG BR NSC
PROB30
TEMPO 2706/2707 0800 FG SCT002
BECMG 2710/2712 27010KT
BECMG 2719/2721 11005KT
Pas de NOTAMs connus pour ce terrain.



MET'MAP, la Météo Aéronautique d'un coup d'oeil ! - Copyright ORBIFLY Décembre 2007 - Disclaimer

ORBIFLY MET'MAP TEAM :

Programmation & Développement : Alexandra Zaïnal
Conception & Développement : Baudouin d'Aumeries
Co-Programmation & Développement : Marc-Olivier Méhu
Soutien technique & logistique : Manuel Goepfert

Contact : metmap@orbifly.com




SOURCES & CREDITS :

   NOAA